sensor_id;sensor_type;location;lat;lon;timestamp;P1;durP1;ratioP1;P2;durP2;ratioP2
16828;SDS011;8531;48.078;11.968;2022-07-22T00:01:36;12.25;;;11.15;;
16828;SDS011;8531;48.078;11.968;2022-07-22T00:04:02;11.45;;;10.35;;
16828;SDS011;8531;48.078;11.968;2022-07-22T00:06:28;12.32;;;11.20;;
16828;SDS011;8531;48.078;11.968;2022-07-22T00:08:54;12.10;;;10.60;;
16828;SDS011;8531;48.078;11.968;2022-07-22T00:11:20;12.30;;;11.10;;
16828;SDS011;8531;48.078;11.968;2022-07-22T00:13:46;13.18;;;11.88;;
16828;SDS011;8531;48.078;11.968;2022-07-22T00:16:12;12.95;;;11.65;;
16828;SDS011;8531;48.078;11.968;2022-07-22T00:18:38;12.30;;;11.20;;
16828;SDS011;8531;48.078;11.968;2022-07-22T00:21:03;14.18;;;11.90;;
16828;SDS011;8531;48.078;11.968;2022-07-22T00:23:30;12.52;;;11.30;;
16828;SDS011;8531;48.078;11.968;2022-07-22T00:25:55;12.15;;;11.05;;
16828;SDS011;8531;48.078;11.968;2022-07-22T00:28:21;12.15;;;10.95;;
16828;SDS011;8531;48.078;11.968;2022-07-22T00:30:47;14.15;;;11.80;;
16828;SDS011;8531;48.078;11.968;2022-07-22T00:33:12;13.00;;;11.80;;
16828;SDS011;8531;48.078;11.968;2022-07-22T00:35:38;12.63;;;11.43;;
16828;SDS011;8531;48.078;11.968;2022-07-22T00:38:03;11.60;;;10.52;;
16828;SDS011;8531;48.078;11.968;2022-07-22T00:40:29;12.50;;;11.35;;
16828;SDS011;8531;48.078;11.968;2022-07-22T00:42:55;12.73;;;11.52;;
16828;SDS011;8531;48.078;11.968;2022-07-22T00:45:20;11.45;;;10.10;;
16828;SDS011;8531;48.078;11.968;2022-07-22T00:47:46;12.57;;;11.38;;
16828;SDS011;8531;48.078;11.968;2022-07-22T00:50:12;11.77;;;10.65;;
16828;SDS011;8531;48.078;11.968;2022-07-22T00:52:40;11.95;;;10.77;;
16828;SDS011;8531;48.078;11.968;2022-07-22T00:55:07;11.32;;;10.32;;
16828;SDS011;8531;48.078;11.968;2022-07-22T00:57:33;11.65;;;10.65;;
16828;SDS011;8531;48.078;11.968;2022-07-22T00:59:59;11.63;;;10.63;;
16828;SDS011;8531;48.078;11.968;2022-07-22T01:02:25;12.55;;;10.75;;
16828;SDS011;8531;48.078;11.968;2022-07-22T01:04:51;11.95;;;10.68;;
16828;SDS011;8531;48.078;11.968;2022-07-22T01:07:17;11.30;;;10.23;;
16828;SDS011;8531;48.078;11.968;2022-07-22T01:09:43;11.98;;;10.85;;
16828;SDS011;8531;48.078;11.968;2022-07-22T01:12:11;11.63;;;10.40;;
16828;SDS011;8531;48.078;11.968;2022-07-22T01:14:37;11.27;;;10.15;;
16828;SDS011;8531;48.078;11.968;2022-07-22T01:17:03;11.35;;;10.30;;
16828;SDS011;8531;48.078;11.968;2022-07-22T01:19:29;10.68;;;9.68;;
16828;SDS011;8531;48.078;11.968;2022-07-22T01:21:55;10.82;;;9.85;;
16828;SDS011;8531;48.078;11.968;2022-07-22T01:24:20;11.63;;;10.52;;
16828;SDS011;8531;48.078;11.968;2022-07-22T01:26:46;10.60;;;9.60;;
16828;SDS011;8531;48.078;11.968;2022-07-22T01:29:12;11.38;;;10.32;;
16828;SDS011;8531;48.078;11.968;2022-07-22T01:31:38;11.65;;;10.45;;
16828;SDS011;8531;48.078;11.968;2022-07-22T01:34:03;11.93;;;10.80;;
16828;SDS011;8531;48.078;11.968;2022-07-22T01:36:29;12.20;;;11.02;;
16828;SDS011;8531;48.078;11.968;2022-07-22T01:38:55;11.50;;;10.30;;
16828;SDS011;8531;48.078;11.968;2022-07-22T01:41:20;12.05;;;10.63;;
16828;SDS011;8531;48.078;11.968;2022-07-22T01:43:46;10.55;;;9.45;;
16828;SDS011;8531;48.078;11.968;2022-07-22T01:46:12;11.55;;;10.48;;
16828;SDS011;8531;48.078;11.968;2022-07-22T01:48:37;10.57;;;9.52;;
16828;SDS011;8531;48.078;11.968;2022-07-22T01:51:05;11.43;;;10.20;;
16828;SDS011;8531;48.078;11.968;2022-07-22T01:53:31;11.27;;;10.20;;
16828;SDS011;8531;48.078;11.968;2022-07-22T01:55:57;10.82;;;9.73;;
16828;SDS011;8531;48.078;11.968;2022-07-22T01:58:23;9.90;;;9.07;;
16828;SDS011;8531;48.078;11.968;2022-07-22T02:00:49;10.73;;;9.82;;
16828;SDS011;8531;48.078;11.968;2022-07-22T02:03:14;9.75;;;8.93;;
16828;SDS011;8531;48.078;11.968;2022-07-22T02:05:40;10.68;;;9.68;;
16828;SDS011;8531;48.078;11.968;2022-07-22T02:08:07;11.15;;;10.05;;
16828;SDS011;8531;48.078;11.968;2022-07-22T02:10:34;10.68;;;9.73;;
16828;SDS011;8531;48.078;11.968;2022-07-22T02:13:01;11.15;;;10.07;;
16828;SDS011;8531;48.078;11.968;2022-07-22T02:15:27;10.98;;;9.98;;
16828;SDS011;8531;48.078;11.968;2022-07-22T02:17:54;11.23;;;10.23;;
16828;SDS011;8531;48.078;11.968;2022-07-22T02:20:20;11.70;;;10.60;;
16828;SDS011;8531;48.078;11.968;2022-07-22T02:22:45;11.70;;;10.60;;
16828;SDS011;8531;48.078;11.968;2022-07-22T02:25:11;11.10;;;10.13;;
16828;SDS011;8531;48.078;11.968;2022-07-22T02:27:38;12.38;;;11.27;;
16828;SDS011;8531;48.078;11.968;2022-07-22T02:30:05;11.45;;;10.43;;
16828;SDS011;8531;48.078;11.968;2022-07-22T02:32:31;12.10;;;11.00;;
16828;SDS011;8531;48.078;11.968;2022-07-22T02:34:57;12.65;;;11.15;;
16828;SDS011;8531;48.078;11.968;2022-07-22T02:37:22;12.40;;;11.20;;
16828;SDS011;8531;48.078;11.968;2022-07-22T02:39:48;11.70;;;10.55;;
16828;SDS011;8531;48.078;11.968;2022-07-22T02:42:14;10.43;;;9.40;;
16828;SDS011;8531;48.078;11.968;2022-07-22T02:44:39;11.20;;;10.10;;
16828;SDS011;8531;48.078;11.968;2022-07-22T02:47:05;11.02;;;9.98;;
16828;SDS011;8531;48.078;11.968;2022-07-22T02:49:31;11.15;;;10.15;;
16828;SDS011;8531;48.078;11.968;2022-07-22T02:51:57;11.68;;;10.48;;
16828;SDS011;8531;48.078;11.968;2022-07-22T02:54:22;10.77;;;9.68;;
16828;SDS011;8531;48.078;11.968;2022-07-22T02:56:48;11.18;;;10.18;;
16828;SDS011;8531;48.078;11.968;2022-07-22T02:59:14;12.30;;;11.10;;
16828;SDS011;8531;48.078;11.968;2022-07-22T03:01:39;11.60;;;10.60;;
16828;SDS011;8531;48.078;11.968;2022-07-22T03:04:05;13.35;;;11.98;;
16828;SDS011;8531;48.078;11.968;2022-07-22T03:06:31;12.18;;;10.98;;
16828;SDS011;8531;48.078;11.968;2022-07-22T03:08:56;11.68;;;10.48;;
16828;SDS011;8531;48.078;11.968;2022-07-22T03:11:22;11.60;;;10.50;;
16828;SDS011;8531;48.078;11.968;2022-07-22T03:13:47;11.38;;;10.27;;
16828;SDS011;8531;48.078;11.968;2022-07-22T03:16:13;11.27;;;10.18;;
16828;SDS011;8531;48.078;11.968;2022-07-22T03:18:39;11.75;;;10.63;;
16828;SDS011;8531;48.078;11.968;2022-07-22T03:21:05;11.52;;;10.35;;
16828;SDS011;8531;48.078;11.968;2022-07-22T03:23:31;11.88;;;10.68;;
16828;SDS011;8531;48.078;11.968;2022-07-22T03:25:56;11.05;;;9.95;;
16828;SDS011;8531;48.078;11.968;2022-07-22T03:28:22;11.32;;;10.32;;
16828;SDS011;8531;48.078;11.968;2022-07-22T03:30:48;11.73;;;10.57;;
16828;SDS011;8531;48.078;11.968;2022-07-22T03:33:13;12.23;;;11.07;;
16828;SDS011;8531;48.078;11.968;2022-07-22T03:35:39;12.23;;;11.02;;
16828;SDS011;8531;48.078;11.968;2022-07-22T03:38:05;11.65;;;10.65;;
16828;SDS011;8531;48.078;11.968;2022-07-22T03:40:30;12.80;;;11.25;;
16828;SDS011;8531;48.078;11.968;2022-07-22T03:42:56;12.18;;;11.05;;
16828;SDS011;8531;48.078;11.968;2022-07-22T03:45:22;15.27;;;13.57;;
16828;SDS011;8531;48.078;11.968;2022-07-22T03:47:47;15.00;;;13.60;;
16828;SDS011;8531;48.078;11.968;2022-07-22T03:50:13;12.20;;;11.00;;
16828;SDS011;8531;48.078;11.968;2022-07-22T03:52:38;12.05;;;10.95;;
16828;SDS011;8531;48.078;11.968;2022-07-22T03:55:04;15.10;;;13.43;;
16828;SDS011;8531;48.078;11.968;2022-07-22T03:57:30;13.95;;;12.65;;
16828;SDS011;8531;48.078;11.968;2022-07-22T03:59:56;14.85;;;13.30;;
16828;SDS011;8531;48.078;11.968;2022-07-22T04:02:22;14.63;;;13.15;;
16828;SDS011;8531;48.078;11.968;2022-07-22T04:04:47;14.65;;;13.25;;
16828;SDS011;8531;48.078;11.968;2022-07-22T04:07:13;13.70;;;12.30;;
16828;SDS011;8531;48.078;11.968;2022-07-22T04:09:39;12.35;;;11.18;;
16828;SDS011;8531;48.078;11.968;2022-07-22T04:12:04;13.00;;;11.82;;
16828;SDS011;8531;48.078;11.968;2022-07-22T04:14:30;14.10;;;12.80;;
16828;SDS011;8531;48.078;11.968;2022-07-22T04:16:56;16.13;;;13.18;;
16828;SDS011;8531;48.078;11.968;2022-07-22T04:19:21;14.40;;;13.00;;
16828;SDS011;8531;48.078;11.968;2022-07-22T04:21:47;14.30;;;12.98;;
16828;SDS011;8531;48.078;11.968;2022-07-22T04:24:12;17.83;;;14.50;;
16828;SDS011;8531;48.078;11.968;2022-07-22T04:26:38;15.18;;;13.57;;
16828;SDS011;8531;48.078;11.968;2022-07-22T04:29:04;13.35;;;12.10;;
16828;SDS011;8531;48.078;11.968;2022-07-22T04:31:30;12.70;;;11.60;;
16828;SDS011;8531;48.078;11.968;2022-07-22T04:33:56;18.63;;;14.15;;
16828;SDS011;8531;48.078;11.968;2022-07-22T04:36:22;16.48;;;13.90;;
16828;SDS011;8531;48.078;11.968;2022-07-22T04:38:48;15.82;;;14.23;;
16828;SDS011;8531;48.078;11.968;2022-07-22T04:41:14;16.17;;;13.88;;
16828;SDS011;8531;48.078;11.968;2022-07-22T04:43:40;13.52;;;12.25;;
16828;SDS011;8531;48.078;11.968;2022-07-22T04:46:06;13.38;;;12.18;;
16828;SDS011;8531;48.078;11.968;2022-07-22T04:48:32;12.95;;;11.48;;
16828;SDS011;8531;48.078;11.968;2022-07-22T04:50:59;16.85;;;12.88;;
16828;SDS011;8531;48.078;11.968;2022-07-22T04:53:25;14.02;;;12.73;;
16828;SDS011;8531;48.078;11.968;2022-07-22T04:55:52;15.45;;;13.13;;
16828;SDS011;8531;48.078;11.968;2022-07-22T04:58:17;13.40;;;12.10;;
16828;SDS011;8531;48.078;11.968;2022-07-22T05:00:43;14.02;;;12.73;;
16828;SDS011;8531;48.078;11.968;2022-07-22T05:03:09;14.73;;;13.23;;
16828;SDS011;8531;48.078;11.968;2022-07-22T05:05:34;15.75;;;12.38;;
16828;SDS011;8531;48.078;11.968;2022-07-22T05:08:00;13.48;;;11.98;;
16828;SDS011;8531;48.078;11.968;2022-07-22T05:10:26;13.77;;;12.40;;
16828;SDS011;8531;48.078;11.968;2022-07-22T05:12:52;16.92;;;12.63;;
16828;SDS011;8531;48.078;11.968;2022-07-22T05:15:18;14.00;;;12.70;;
16828;SDS011;8531;48.078;11.968;2022-07-22T05:17:44;13.73;;;12.18;;
16828;SDS011;8531;48.078;11.968;2022-07-22T05:20:10;13.30;;;12.10;;
16828;SDS011;8531;48.078;11.968;2022-07-22T05:22:36;14.73;;;13.00;;
16828;SDS011;8531;48.078;11.968;2022-07-22T05:25:01;14.10;;;12.77;;
16828;SDS011;8531;48.078;11.968;2022-07-22T05:27:27;14.65;;;13.15;;
16828;SDS011;8531;48.078;11.968;2022-07-22T05:29:53;16.70;;;15.00;;
16828;SDS011;8531;48.078;11.968;2022-07-22T05:32:18;20.48;;;16.15;;
16828;SDS011;8531;48.078;11.968;2022-07-22T05:34:44;15.93;;;14.43;;
16828;SDS011;8531;48.078;11.968;2022-07-22T05:37:10;17.75;;;15.90;;
16828;SDS011;8531;48.078;11.968;2022-07-22T05:39:35;19.20;;;17.17;;
16828;SDS011;8531;48.078;11.968;2022-07-22T05:42:01;18.25;;;16.20;;
16828;SDS011;8531;48.078;11.968;2022-07-22T05:44:27;17.30;;;15.55;;
16828;SDS011;8531;48.078;11.968;2022-07-22T05:46:52;17.27;;;15.43;;
16828;SDS011;8531;48.078;11.968;2022-07-22T05:49:18;18.50;;;16.52;;
16828;SDS011;8531;48.078;11.968;2022-07-22T05:51:44;16.90;;;15.20;;
16828;SDS011;8531;48.078;11.968;2022-07-22T05:54:10;16.02;;;14.40;;
16828;SDS011;8531;48.078;11.968;2022-07-22T05:56:36;16.35;;;14.15;;
16828;SDS011;8531;48.078;11.968;2022-07-22T05:59:02;16.90;;;14.38;;
16828;SDS011;8531;48.078;11.968;2022-07-22T06:01:27;17.33;;;15.63;;
16828;SDS011;8531;48.078;11.968;2022-07-22T06:03:53;16.10;;;13.82;;
16828;SDS011;8531;48.078;11.968;2022-07-22T06:06:18;15.48;;;12.30;;
16828;SDS011;8531;48.078;11.968;2022-07-22T06:08:44;15.15;;;11.07;;
16828;SDS011;8531;48.078;11.968;2022-07-22T06:11:10;13.25;;;11.32;;
16828;SDS011;8531;48.078;11.968;2022-07-22T06:13:36;15.52;;;12.73;;
16828;SDS011;8531;48.078;11.968;2022-07-22T06:16:02;17.20;;;12.52;;
16828;SDS011;8531;48.078;11.968;2022-07-22T06:18:29;18.33;;;12.85;;
16828;SDS011;8531;48.078;11.968;2022-07-22T06:20:54;14.25;;;12.77;;
16828;SDS011;8531;48.078;11.968;2022-07-22T06:23:20;15.13;;;13.00;;
16828;SDS011;8531;48.078;11.968;2022-07-22T06:25:48;15.82;;;14.30;;
16828;SDS011;8531;48.078;11.968;2022-07-22T06:28:14;14.80;;;13.10;;
16828;SDS011;8531;48.078;11.968;2022-07-22T06:30:39;14.20;;;12.73;;
16828;SDS011;8531;48.078;11.968;2022-07-22T06:33:05;19.00;;;12.25;;
16828;SDS011;8531;48.078;11.968;2022-07-22T06:35:30;11.43;;;10.32;;
16828;SDS011;8531;48.078;11.968;2022-07-22T06:37:56;10.20;;;9.20;;
16828;SDS011;8531;48.078;11.968;2022-07-22T06:40:22;12.30;;;8.95;;
16828;SDS011;8531;48.078;11.968;2022-07-22T06:42:48;12.63;;;9.55;;
16828;SDS011;8531;48.078;11.968;2022-07-22T06:45:14;11.38;;;10.23;;
16828;SDS011;8531;48.078;11.968;2022-07-22T06:47:39;10.38;;;9.07;;
16828;SDS011;8531;48.078;11.968;2022-07-22T06:50:06;11.32;;;8.93;;
16828;SDS011;8531;48.078;11.968;2022-07-22T06:52:33;9.52;;;8.70;;
16828;SDS011;8531;48.078;11.968;2022-07-22T06:54:58;10.98;;;8.63;;
16828;SDS011;8531;48.078;11.968;2022-07-22T06:57:24;10.88;;;9.63;;
16828;SDS011;8531;48.078;11.968;2022-07-22T06:59:50;10.13;;;9.18;;
16828;SDS011;8531;48.078;11.968;2022-07-22T07:02:16;11.77;;;9.48;;
16828;SDS011;8531;48.078;11.968;2022-07-22T07:04:41;11.73;;;8.82;;
16828;SDS011;8531;48.078;11.968;2022-07-22T07:07:07;10.63;;;9.63;;
16828;SDS011;8531;48.078;11.968;2022-07-22T07:09:33;10.38;;;8.80;;
16828;SDS011;8531;48.078;11.968;2022-07-22T07:11:59;8.98;;;8.15;;
16828;SDS011;8531;48.078;11.968;2022-07-22T07:14:25;9.27;;;8.48;;
16828;SDS011;8531;48.078;11.968;2022-07-22T07:16:51;8.98;;;8.07;;
16828;SDS011;8531;48.078;11.968;2022-07-22T07:19:17;11.07;;;8.68;;
16828;SDS011;8531;48.078;11.968;2022-07-22T07:21:44;8.70;;;7.80;;
16828;SDS011;8531;48.078;11.968;2022-07-22T07:24:10;9.25;;;8.25;;
16828;SDS011;8531;48.078;11.968;2022-07-22T07:26:37;7.88;;;7.07;;
16828;SDS011;8531;48.078;11.968;2022-07-22T07:29:03;8.75;;;7.82;;
16828;SDS011;8531;48.078;11.968;2022-07-22T07:31:28;8.80;;;7.63;;
16828;SDS011;8531;48.078;11.968;2022-07-22T07:33:54;10.27;;;7.82;;
16828;SDS011;8531;48.078;11.968;2022-07-22T07:36:20;8.57;;;7.72;;
16828;SDS011;8531;48.078;11.968;2022-07-22T07:38:46;8.90;;;8.00;;
16828;SDS011;8531;48.078;11.968;2022-07-22T07:41:12;9.07;;;8.18;;
16828;SDS011;8531;48.078;11.968;2022-07-22T07:43:38;9.68;;;8.27;;
16828;SDS011;8531;48.078;11.968;2022-07-22T07:46:03;9.10;;;8.30;;
16828;SDS011;8531;48.078;11.968;2022-07-22T07:48:29;9.05;;;8.25;;
16828;SDS011;8531;48.078;11.968;2022-07-22T07:50:55;9.90;;;8.07;;
16828;SDS011;8531;48.078;11.968;2022-07-22T07:53:21;9.07;;;8.20;;
16828;SDS011;8531;48.078;11.968;2022-07-22T07:55:47;9.98;;;8.10;;
16828;SDS011;8531;48.078;11.968;2022-07-22T07:58:12;8.25;;;7.35;;
16828;SDS011;8531;48.078;11.968;2022-07-22T08:00:38;9.45;;;7.70;;
16828;SDS011;8531;48.078;11.968;2022-07-22T08:03:06;8.40;;;6.90;;
16828;SDS011;8531;48.078;11.968;2022-07-22T08:05:32;8.30;;;6.90;;
16828;SDS011;8531;48.078;11.968;2022-07-22T08:07:58;6.82;;;6.13;;
16828;SDS011;8531;48.078;11.968;2022-07-22T08:10:23;7.60;;;6.03;;
16828;SDS011;8531;48.078;11.968;2022-07-22T08:12:49;7.05;;;6.15;;
16828;SDS011;8531;48.078;11.968;2022-07-22T08:15:15;10.82;;;6.22;;
16828;SDS011;8531;48.078;11.968;2022-07-22T08:17:41;7.57;;;6.88;;
16828;SDS011;8531;48.078;11.968;2022-07-22T08:20:07;7.22;;;6.55;;
16828;SDS011;8531;48.078;11.968;2022-07-22T08:22:33;6.78;;;6.10;;
16828;SDS011;8531;48.078;11.968;2022-07-22T08:24:59;10.45;;;6.13;;
16828;SDS011;8531;48.078;11.968;2022-07-22T08:27:25;7.50;;;6.53;;
16828;SDS011;8531;48.078;11.968;2022-07-22T08:29:50;8.85;;;7.13;;
16828;SDS011;8531;48.078;11.968;2022-07-22T08:32:16;7.00;;;6.32;;
16828;SDS011;8531;48.078;11.968;2022-07-22T08:34:42;7.40;;;6.70;;
16828;SDS011;8531;48.078;11.968;2022-07-22T08:37:08;7.15;;;6.45;;
16828;SDS011;8531;48.078;11.968;2022-07-22T08:39:33;7.22;;;6.53;;
16828;SDS011;8531;48.078;11.968;2022-07-22T08:41:59;7.63;;;6.20;;
16828;SDS011;8531;48.078;11.968;2022-07-22T08:44:28;7.15;;;6.43;;
16828;SDS011;8531;48.078;11.968;2022-07-22T08:46:56;6.85;;;6.18;;
16828;SDS011;8531;48.078;11.968;2022-07-22T08:49:22;7.45;;;5.82;;
16828;SDS011;8531;48.078;11.968;2022-07-22T08:51:48;7.07;;;6.40;;
16828;SDS011;8531;48.078;11.968;2022-07-22T08:54:13;7.18;;;6.15;;
16828;SDS011;8531;48.078;11.968;2022-07-22T08:56:39;5.97;;;5.47;;
16828;SDS011;8531;48.078;11.968;2022-07-22T08:59:05;7.03;;;5.40;;
16828;SDS011;8531;48.078;11.968;2022-07-22T09:01:31;7.05;;;5.60;;
16828;SDS011;8531;48.078;11.968;2022-07-22T09:03:57;5.75;;;5.18;;
16828;SDS011;8531;48.078;11.968;2022-07-22T09:06:24;6.53;;;5.93;;
16828;SDS011;8531;48.078;11.968;2022-07-22T09:08:52;6.15;;;5.55;;
16828;SDS011;8531;48.078;11.968;2022-07-22T09:11:20;8.45;;;5.55;;
16828;SDS011;8531;48.078;11.968;2022-07-22T09:13:47;6.55;;;5.90;;
16828;SDS011;8531;48.078;11.968;2022-07-22T09:16:14;5.47;;;5.00;;
16828;SDS011;8531;48.078;11.968;2022-07-22T09:21:16;7.60;;;5.88;;
16828;SDS011;8531;48.078;11.968;2022-07-22T09:23:42;6.53;;;5.65;;
16828;SDS011;8531;48.078;11.968;2022-07-22T09:26:08;6.57;;;5.60;;
16828;SDS011;8531;48.078;11.968;2022-07-22T09:28:34;6.95;;;6.25;;
16828;SDS011;8531;48.078;11.968;2022-07-22T09:31:03;6.22;;;5.72;;
16828;SDS011;8531;48.078;11.968;2022-07-22T09:33:29;6.72;;;5.07;;
16828;SDS011;8531;48.078;11.968;2022-07-22T09:36:01;5.47;;;4.97;;
16828;SDS011;8531;48.078;11.968;2022-07-22T09:38:28;6.85;;;5.60;;
16828;SDS011;8531;48.078;11.968;2022-07-22T09:40:56;6.85;;;5.50;;
16828;SDS011;8531;48.078;11.968;2022-07-22T09:43:23;6.65;;;5.80;;
16828;SDS011;8531;48.078;11.968;2022-07-22T09:45:53;5.93;;;5.43;;
16828;SDS011;8531;48.078;11.968;2022-07-22T09:48:22;5.57;;;4.93;;
16828;SDS011;8531;48.078;11.968;2022-07-22T09:50:49;6.00;;;5.40;;
16828;SDS011;8531;48.078;11.968;2022-07-22T09:53:17;9.15;;;5.10;;
16828;SDS011;8531;48.078;11.968;2022-07-22T09:55:44;8.30;;;5.00;;
16828;SDS011;8531;48.078;11.968;2022-07-22T09:58:10;4.63;;;4.32;;
16828;SDS011;8531;48.078;11.968;2022-07-22T10:00:36;5.55;;;4.18;;
16828;SDS011;8531;48.078;11.968;2022-07-22T10:03:03;5.80;;;5.28;;
16828;SDS011;8531;48.078;11.968;2022-07-22T10:05:32;5.05;;;4.65;;
16828;SDS011;8531;48.078;11.968;2022-07-22T10:08:04;6.10;;;5.50;;
16828;SDS011;8531;48.078;11.968;2022-07-22T10:10:31;5.30;;;4.90;;
16828;SDS011;8531;48.078;11.968;2022-07-22T10:12:58;7.65;;;5.50;;
16828;SDS011;8531;48.078;11.968;2022-07-22T10:15:26;5.75;;;5.22;;
16828;SDS011;8531;48.078;11.968;2022-07-22T10:17:54;6.00;;;5.50;;
16828;SDS011;8531;48.078;11.968;2022-07-22T10:20:22;5.70;;;5.30;;
16828;SDS011;8531;48.078;11.968;2022-07-22T10:23:02;6.35;;;5.75;;
16828;SDS011;8531;48.078;11.968;2022-07-22T10:25:47;7.63;;;5.45;;
16828;SDS011;8531;48.078;11.968;2022-07-22T10:28:30;5.55;;;5.10;;
16828;SDS011;8531;48.078;11.968;2022-07-22T10:33:43;5.78;;;5.20;;
16828;SDS011;8531;48.078;11.968;2022-07-22T10:36:10;5.88;;;5.10;;
16828;SDS011;8531;48.078;11.968;2022-07-22T10:38:37;5.97;;;4.95;;
16828;SDS011;8531;48.078;11.968;2022-07-22T10:41:03;5.43;;;4.93;;
16828;SDS011;8531;48.078;11.968;2022-07-22T10:43:32;6.43;;;4.95;;
16828;SDS011;8531;48.078;11.968;2022-07-22T10:46:13;6.80;;;5.80;;
16828;SDS011;8531;48.078;11.968;2022-07-22T10:51:15;8.13;;;5.82;;
16828;SDS011;8531;48.078;11.968;2022-07-22T10:59:07;5.13;;;4.72;;
16828;SDS011;8531;48.078;11.968;2022-07-22T11:01:34;5.90;;;5.35;;
16828;SDS011;8531;48.078;11.968;2022-07-22T11:04:15;5.57;;;5.07;;
16828;SDS011;8531;48.078;11.968;2022-07-22T11:06:42;6.47;;;5.80;;
16828;SDS011;8531;48.078;11.968;2022-07-22T11:09:10;6.22;;;5.72;;
16828;SDS011;8531;48.078;11.968;2022-07-22T11:16:44;7.85;;;6.78;;
16828;SDS011;8531;48.078;11.968;2022-07-22T11:19:10;8.45;;;6.45;;
16828;SDS011;8531;48.078;11.968;2022-07-22T11:21:36;6.63;;;6.10;;
16828;SDS011;8531;48.078;11.968;2022-07-22T11:24:03;7.50;;;6.78;;
16828;SDS011;8531;48.078;11.968;2022-07-22T11:26:41;7.40;;;6.50;;
16828;SDS011;8531;48.078;11.968;2022-07-22T11:29:23;7.32;;;6.60;;
16828;SDS011;8531;48.078;11.968;2022-07-22T11:32:00;7.90;;;7.10;;
16828;SDS011;8531;48.078;11.968;2022-07-22T11:34:27;7.13;;;6.45;;
16828;SDS011;8531;48.078;11.968;2022-07-22T11:36:53;7.25;;;6.65;;
16828;SDS011;8531;48.078;11.968;2022-07-22T11:39:21;7.97;;;6.50;;
16828;SDS011;8531;48.078;11.968;2022-07-22T11:41:49;6.43;;;5.93;;
16828;SDS011;8531;48.078;11.968;2022-07-22T11:44:20;7.00;;;6.40;;
16828;SDS011;8531;48.078;11.968;2022-07-22T11:46:47;10.85;;;6.68;;
16828;SDS011;8531;48.078;11.968;2022-07-22T11:49:14;7.18;;;6.57;;
16828;SDS011;8531;48.078;11.968;2022-07-22T11:51:41;6.53;;;5.88;;
16828;SDS011;8531;48.078;11.968;2022-07-22T11:54:07;7.03;;;6.43;;
16828;SDS011;8531;48.078;11.968;2022-07-22T11:56:33;7.20;;;6.60;;
16828;SDS011;8531;48.078;11.968;2022-07-22T11:59:00;7.55;;;6.70;;
16828;SDS011;8531;48.078;11.968;2022-07-22T12:01:30;7.35;;;6.65;;
16828;SDS011;8531;48.078;11.968;2022-07-22T12:04:00;6.65;;;5.88;;
16828;SDS011;8531;48.078;11.968;2022-07-22T12:06:34;6.88;;;6.30;;
16828;SDS011;8531;48.078;11.968;2022-07-22T12:09:12;8.20;;;7.00;;
16828;SDS011;8531;48.078;11.968;2022-07-22T12:11:46;7.45;;;6.35;;
16828;SDS011;8531;48.078;11.968;2022-07-22T12:14:17;6.82;;;6.10;;
16828;SDS011;8531;48.078;11.968;2022-07-22T12:16:57;6.78;;;6.00;;
16828;SDS011;8531;48.078;11.968;2022-07-22T12:19:26;6.60;;;6.00;;
16828;SDS011;8531;48.078;11.968;2022-07-22T12:22:00;7.13;;;6.43;;
16828;SDS011;8531;48.078;11.968;2022-07-22T12:24:27;7.95;;;7.15;;
16828;SDS011;8531;48.078;11.968;2022-07-22T12:27:14;7.60;;;6.85;;
16828;SDS011;8531;48.078;11.968;2022-07-22T12:29:42;6.88;;;6.28;;
16828;SDS011;8531;48.078;11.968;2022-07-22T12:32:10;8.32;;;6.20;;
16828;SDS011;8531;48.078;11.968;2022-07-22T12:34:55;6.75;;;6.15;;
16828;SDS011;8531;48.078;11.968;2022-07-22T12:37:27;6.45;;;5.95;;
16828;SDS011;8531;48.078;11.968;2022-07-22T12:42:40;8.50;;;6.65;;
16828;SDS011;8531;48.078;11.968;2022-07-22T12:45:14;5.95;;;5.53;;
16828;SDS011;8531;48.078;11.968;2022-07-22T12:47:42;7.63;;;6.72;;
16828;SDS011;8531;48.078;11.968;2022-07-22T12:52:59;6.97;;;6.32;;
16828;SDS011;8531;48.078;11.968;2022-07-22T12:55:37;7.90;;;6.43;;
16828;SDS011;8531;48.078;11.968;2022-07-22T12:58:06;8.32;;;6.25;;
16828;SDS011;8531;48.078;11.968;2022-07-22T13:00:34;6.60;;;6.05;;
16828;SDS011;8531;48.078;11.968;2022-07-22T13:03:03;6.57;;;5.97;;
16828;SDS011;8531;48.078;11.968;2022-07-22T13:05:29;6.65;;;6.15;;
16828;SDS011;8531;48.078;11.968;2022-07-22T13:07:55;6.40;;;5.85;;
16828;SDS011;8531;48.078;11.968;2022-07-22T13:10:24;8.57;;;6.70;;
16828;SDS011;8531;48.078;11.968;2022-07-22T13:12:51;7.00;;;6.00;;
16828;SDS011;8531;48.078;11.968;2022-07-22T13:15:17;7.50;;;6.65;;
16828;SDS011;8531;48.078;11.968;2022-07-22T13:17:44;9.57;;;7.15;;
16828;SDS011;8531;48.078;11.968;2022-07-22T13:20:10;8.75;;;7.60;;
16828;SDS011;8531;48.078;11.968;2022-07-22T13:22:37;6.82;;;6.22;;
16828;SDS011;8531;48.078;11.968;2022-07-22T13:25:03;7.60;;;6.03;;
16828;SDS011;8531;48.078;11.968;2022-07-22T13:27:29;8.63;;;6.25;;
16828;SDS011;8531;48.078;11.968;2022-07-22T13:29:55;6.53;;;5.90;;
16828;SDS011;8531;48.078;11.968;2022-07-22T13:32:20;6.72;;;6.22;;
16828;SDS011;8531;48.078;11.968;2022-07-22T13:34:46;6.25;;;5.75;;
16828;SDS011;8531;48.078;11.968;2022-07-22T13:37:12;6.55;;;5.97;;
16828;SDS011;8531;48.078;11.968;2022-07-22T13:39:37;7.32;;;6.63;;
16828;SDS011;8531;48.078;11.968;2022-07-22T13:42:05;7.72;;;6.72;;
16828;SDS011;8531;48.078;11.968;2022-07-22T13:44:31;7.45;;;6.75;;
16828;SDS011;8531;48.078;11.968;2022-07-22T13:46:57;6.57;;;5.97;;
16828;SDS011;8531;48.078;11.968;2022-07-22T13:49:23;6.68;;;6.18;;
16828;SDS011;8531;48.078;11.968;2022-07-22T13:51:49;7.03;;;6.32;;
16828;SDS011;8531;48.078;11.968;2022-07-22T13:54:16;9.27;;;6.82;;
16828;SDS011;8531;48.078;11.968;2022-07-22T13:56:42;6.75;;;6.18;;
16828;SDS011;8531;48.078;11.968;2022-07-22T13:59:09;6.95;;;6.15;;
16828;SDS011;8531;48.078;11.968;2022-07-22T14:01:36;7.78;;;6.78;;
16828;SDS011;8531;48.078;11.968;2022-07-22T14:04:02;7.25;;;6.65;;
16828;SDS011;8531;48.078;11.968;2022-07-22T14:06:29;6.90;;;6.18;;
16828;SDS011;8531;48.078;11.968;2022-07-22T14:08:55;7.40;;;6.35;;
16828;SDS011;8531;48.078;11.968;2022-07-22T14:11:21;6.60;;;6.00;;
16828;SDS011;8531;48.078;11.968;2022-07-22T14:13:46;7.53;;;6.82;;
16828;SDS011;8531;48.078;11.968;2022-07-22T14:16:12;7.55;;;6.88;;
16828;SDS011;8531;48.078;11.968;2022-07-22T14:18:56;7.13;;;6.43;;
16828;SDS011;8531;48.078;11.968;2022-07-22T14:21:22;6.55;;;5.90;;
16828;SDS011;8531;48.078;11.968;2022-07-22T14:23:47;7.40;;;6.70;;
16828;SDS011;8531;48.078;11.968;2022-07-22T14:26:13;6.70;;;6.10;;
16828;SDS011;8531;48.078;11.968;2022-07-22T14:28:38;7.38;;;6.78;;
16828;SDS011;8531;48.078;11.968;2022-07-22T14:31:04;7.63;;;6.50;;
16828;SDS011;8531;48.078;11.968;2022-07-22T14:33:30;9.13;;;6.20;;
16828;SDS011;8531;48.078;11.968;2022-07-22T14:35:55;6.93;;;6.30;;
16828;SDS011;8531;48.078;11.968;2022-07-22T14:38:21;6.97;;;6.38;;
16828;SDS011;8531;48.078;11.968;2022-07-22T14:40:47;8.20;;;6.75;;
16828;SDS011;8531;48.078;11.968;2022-07-22T14:43:12;10.95;;;6.75;;
16828;SDS011;8531;48.078;11.968;2022-07-22T14:45:38;6.50;;;5.90;;
16828;SDS011;8531;48.078;11.968;2022-07-22T14:48:04;10.85;;;6.60;;
16828;SDS011;8531;48.078;11.968;2022-07-22T14:50:30;7.82;;;6.25;;
16828;SDS011;8531;48.078;11.968;2022-07-22T14:52:55;7.05;;;6.40;;
16828;SDS011;8531;48.078;11.968;2022-07-22T14:55:21;8.23;;;7.43;;
16828;SDS011;8531;48.078;11.968;2022-07-22T14:57:47;6.82;;;6.22;;